Time;durP1;ratioP1;P1;durP2;ratioP2;P2;SDS_P1;SDS_P2;PMS_P1;PMS_P2;Temp;Humidity;BMP_temperature;BMP_pressure;BME280_temperature;BME280_humidity;BME280_pressure;Samples;Min_cycle;Max_cycle;Signal;HPM_P1;HPM_P2
2021/12/04 00:00:22;;;;;;;23.92;9.20;;;;;;;-1.37;61.00;97910.50;5030381;28;20030;-75
2021/12/04 00:02:50;;;;;;;24.50;9.77;;;;;;;-1.37;61.12;97915.91;5030680;28;20033;-75
2021/12/04 00:05:17;;;;;;;22.58;9.40;;;;;;;-1.39;61.17;97906.41;5030652;28;20032;-75
2021/12/04 00:07:43;;;;;;;25.45;9.75;;;;;;;-1.41;60.80;97906.66;5030403;28;20053;-76
2021/12/04 00:10:09;;;;;;;20.95;9.23;;;;;;;-1.42;60.91;97907.69;5030515;28;20101;-74
2021/12/04 00:12:35;;;;;;;21.70;8.80;;;;;;;-1.41;61.05;97913.88;5030598;28;20087;-74
2021/12/04 00:15:02;;;;;;;22.65;9.57;;;;;;;-1.41;61.22;97909.34;5030741;28;20033;-74
2021/12/04 00:17:27;;;;;;;19.30;8.50;;;;;;;-1.42;61.10;97913.06;5033928;28;20071;-75
2021/12/04 00:19:54;;;;;;;29.83;10.88;;;;;;;-1.44;61.26;97907.09;5034124;28;20042;-75
2021/12/04 00:22:20;;;;;;;29.13;10.07;;;;;;;-1.45;60.98;97915.41;5034407;28;20021;-75
2021/12/04 00:24:45;;;;;;;33.35;12.20;;;;;;;-1.47;61.27;97910.25;5034381;28;20366;-73
2021/12/04 00:27:11;;;;;;;31.92;11.27;;;;;;;-1.49;61.39;97912.34;5032573;28;20088;-74
2021/12/04 00:29:37;;;;;;;36.60;11.70;;;;;;;-1.49;61.83;97912.34;5033770;28;20033;-74
2021/12/04 00:32:10;;;;;;;36.45;12.18;;;;;;;-1.53;61.55;97903.94;5032814;28;20032;-74
2021/12/04 00:34:40;;;;;;;37.75;12.18;;;;;;;-1.55;61.62;97906.03;5052567;28;20059;-74
2021/12/04 00:50:31;;;;;;;41.40;14.55;;;;;;;-1.64;62.15;97880.53;5053219;28;20117;-73
2021/12/04 00:52:56;;;;;;;28.65;12.38;;;;;;;-1.67;62.34;97883.69;5053253;28;20111;-74
2021/12/04 00:55:22;;;;;;;24.33;10.02;;;;;;;-1.67;62.44;97889.06;5053189;28;20066;-75
2021/12/04 00:57:48;;;;;;;32.03;11.40;;;;;;;-1.69;62.22;97880.41;5053550;28;20025;-75
2021/12/04 01:00:13;;;;;;;21.45;9.52;;;;;;;-1.70;62.38;97890.34;5054018;28;20025;-73
2021/12/04 01:02:39;;;;;;;25.90;11.05;;;;;;;-1.70;62.55;97898.41;5041614;28;20028;-75
2021/12/04 01:05:04;;;;;;;31.52;11.65;;;;;;;-1.70;62.88;97890.34;5034652;28;20397;-75
2021/12/04 01:07:30;;;;;;;37.10;14.98;;;;;;;-1.70;62.83;97890.34;5035362;28;20029;-75
2021/12/04 01:09:56;;;;;;;32.63;12.00;;;;;;;-1.71;62.95;97887.88;5039099;28;20831;-73
2021/12/04 01:12:22;;;;;;;61.10;19.48;;;;;;;-1.70;63.17;97889.53;5040916;28;20036;-72
2021/12/04 01:14:47;;;;;;;43.30;15.15;;;;;;;-1.73;62.90;97879.22;5037903;28;20126;-74
2021/12/04 01:17:12;;;;;;;25.33;10.25;;;;;;;-1.74;62.82;97870.34;5036004;28;20029;-74
2021/12/04 01:19:38;;;;;;;25.25;9.75;;;;;;;-1.77;63.09;97865.44;5037061;28;20028;-74
2021/12/04 01:22:05;;;;;;;22.70;9.63;;;;;;;-1.76;63.22;97867.06;5038030;28;20563;-73
2021/12/04 01:24:31;;;;;;;25.20;10.68;;;;;;;-1.77;63.25;97868.13;5035691;28;20113;-73
2021/12/04 01:26:57;;;;;;;19.98;8.45;;;;;;;-1.78;63.38;97862.97;5036104;28;20033;-74
2021/12/04 01:29:22;;;;;;;20.33;9.10;;;;;;;-1.79;63.46;97870.22;5059612;28;20036;-74
2021/12/04 01:31:48;;;;;;;17.88;8.48;;;;;;;-1.78;63.59;97857.59;5037989;28;20056;-73
2021/12/04 01:34:14;;;;;;;16.75;8.02;;;;;;;-1.77;63.89;97859.22;5038283;28;20405;-73
2021/12/04 01:36:40;;;;;;;21.15;10.93;;;;;;;-1.78;63.58;97858.41;5037281;28;20104;-74
2021/12/04 01:39:07;;;;;;;22.88;10.18;;;;;;;-1.78;63.75;97857.59;5035136;28;20191;-73
2021/12/04 01:41:33;;;;;;;14.38;8.18;;;;;;;-1.79;63.99;97851.41;5037479;28;20060;-73
2021/12/04 01:43:59;;;;;;;19.00;9.68;;;;;;;-1.81;64.04;97850.81;5034020;28;20732;-74
2021/12/04 01:46:29;;;;;;;16.23;8.98;;;;;;;-1.83;64.11;97845.66;5034900;28;20485;-73
2021/12/04 01:48:55;;;;;;;18.30;9.18;;;;;;;-1.82;64.19;97847.28;5035550;28;20082;-73
2021/12/04 01:51:20;;;;;;;14.85;7.35;;;;;;;-1.82;64.59;97836.53;5032258;28;20454;-74
2021/12/04 01:53:46;;;;;;;16.05;8.48;;;;;;;-1.82;64.64;97835.72;5037870;28;20786;-74
2021/12/04 01:56:11;;;;;;;14.90;8.80;;;;;;;-1.81;64.33;97837.38;5036639;28;20033;-73
2021/12/04 01:58:38;;;;;;;15.50;8.20;;;;;;;-1.81;64.38;97832.00;5035303;28;20029;-74
2021/12/04 02:01:04;;;;;;;16.30;9.10;;;;;;;-1.81;64.24;97829.31;5033775;28;20025;-74
2021/12/04 02:03:29;;;;;;;17.45;9.73;;;;;;;-1.83;64.56;97829.53;5038187;28;20038;-74
2021/12/04 02:05:55;;;;;;;14.30;7.88;;;;;;;-1.84;64.44;97825.22;5035510;28;20555;-74
2021/12/04 02:08:22;;;;;;;18.50;9.07;;;;;;;-1.84;64.67;97825.22;5036475;28;20025;-73
2021/12/04 02:10:50;;;;;;;15.02;9.10;;;;;;;-1.82;64.79;97816.91;5036244;28;20096;-73
2021/12/04 02:13:16;;;;;;;14.52;8.45;;;;;;;-1.82;64.74;97808.84;5037294;28;20024;-73
2021/12/04 02:15:44;;;;;;;15.40;8.93;;;;;;;-1.83;65.13;97813.41;5036404;28;20481;-73
2021/12/04 02:18:09;;;;;;;14.30;7.70;;;;;;;-1.85;64.99;97806.63;5034520;28;20017;-74
2021/12/04 02:20:35;;;;;;;14.88;7.53;;;;;;;-1.85;65.01;97802.09;5034417;28;20029;-74
2021/12/04 02:23:06;;;;;;;13.43;7.57;;;;;;;-1.85;65.16;97787.81;5034250;28;20025;-74
2021/12/04 02:25:32;;;;;;;12.25;6.72;;;;;;;-1.84;65.02;97786.75;5035814;28;21411;-74
2021/12/04 02:27:58;;;;;;;11.00;7.00;;;;;;;-1.86;64.98;97787.00;5031902;28;20128;-73
2021/12/04 02:30:26;;;;;;;12.15;7.07;;;;;;;-1.85;65.09;97772.53;5036438;28;20036;-73
2021/12/04 02:32:52;;;;;;;13.70;6.40;;;;;;;-1.83;64.95;97785.72;5033108;28;20057;-73
2021/12/04 02:35:19;;;;;;;11.77;7.13;;;;;;;-1.78;65.38;97776.94;5038193;28;20040;-74
2021/12/04 02:37:46;;;;;;;11.65;6.28;;;;;;;-1.81;65.06;97773.66;5034926;28;20401;-73
2021/12/04 02:40:15;;;;;;;10.52;5.93;;;;;;;-1.75;65.12;97769.25;5035852;28;20025;-73
2021/12/04 02:42:41;;;;;;;9.60;6.32;;;;;;;-1.75;65.07;97773.78;5034565;28;20040;-74
2021/12/04 02:45:09;;;;;;;12.60;6.90;;;;;;;-1.76;65.15;97772.97;5035443;28;20398;-73
2021/12/04 02:47:36;;;;;;;13.57;6.82;;;;;;;-1.78;65.06;97761.63;5036652;28;20028;-74
2021/12/04 02:50:05;;;;;;;12.45;7.03;;;;;;;-1.77;65.13;97762.44;5040196;28;20029;-73
2021/12/04 02:52:31;;;;;;;12.85;6.22;;;;;;;-1.77;65.25;97755.22;5034161;28;20033;-74
2021/12/04 02:54:56;;;;;;;10.85;6.45;;;;;;;-1.76;64.96;97756.00;5035354;28;20409;-74
2021/12/04 02:57:22;;;;;;;10.55;6.38;;;;;;;-1.72;65.46;97754.50;5032213;28;20033;-73
2021/12/04 02:59:49;;;;;;;11.32;6.85;;;;;;;-1.71;65.44;97761.50;5034185;28;20025;-74
2021/12/04 03:02:21;;;;;;;9.23;5.75;;;;;;;-1.74;65.23;97756.59;5039524;28;20059;-73
2021/12/04 03:04:49;;;;;;;11.60;6.57;;;;;;;-1.72;65.32;97765.25;5036711;28;20112;-74
2021/12/04 03:07:16;;;;;;;10.60;6.15;;;;;;;-1.71;65.21;97751.59;5032574;28;20037;-74
2021/12/04 03:09:42;;;;;;;10.98;6.57;;;;;;;-1.71;65.01;97754.28;5033626;28;20482;-74
2021/12/04 03:12:08;;;;;;;12.68;6.78;;;;;;;-1.71;65.15;97756.13;5036710;28;20098;-73
2021/12/04 03:14:34;;;;;;;14.05;8.05;;;;;;;-1.71;65.41;97750.75;5038127;28;20037;-74
2021/12/04 03:17:00;;;;;;;10.45;5.95;;;;;;;-1.68;65.13;97755.69;5035957;28;20166;-74
2021/12/04 03:19:27;;;;;;;12.60;7.75;;;;;;;-1.70;65.25;97747.84;5034649;28;20029;-74
2021/12/04 03:21:52;;;;;;;13.57;8.10;;;;;;;-1.71;65.40;97740.00;5037234;28;20021;-73
2021/12/04 03:24:19;;;;;;;16.52;7.30;;;;;;;-1.69;65.09;97733.34;5033608;28;20061;-74
2021/12/04 03:26:47;;;;;;;11.88;5.72;;;;;;;-1.70;65.21;97725.50;5035221;28;20595;-74
2021/12/04 03:29:17;;;;;;;12.27;7.07;;;;;;;-1.70;65.46;97726.34;5034283;28;20116;-74
2021/12/04 03:42:35;;;;;;;11.48;6.88;;;;;;;-1.64;65.09;97719.19;5036760;28;20375;-74
2021/12/04 03:45:03;;;;;;;15.30;8.05;;;;;;;-1.64;64.81;97719.19;5036079;28;20044;-74
2021/12/04 03:47:30;;;;;;;12.27;6.70;;;;;;;-1.64;65.33;97711.13;5034886;28;20453;-74
2021/12/04 03:49:55;;;;;;;10.88;6.35;;;;;;;-1.62;65.14;97706.34;5037708;28;20039;-74
2021/12/04 03:52:21;;;;;;;13.82;7.22;;;;;;;-1.62;64.74;97705.50;5039217;28;20029;-74
2021/12/04 03:54:46;;;;;;;13.43;7.20;;;;;;;-1.60;65.14;97693.47;5038130;28;20021;-74
2021/12/04 03:57:12;;;;;;;11.80;6.55;;;;;;;-1.57;64.97;97692.19;5034461;28;20029;-74
2021/12/04 03:59:40;;;;;;;12.85;6.93;;;;;;;-1.59;64.84;97695.13;5038615;28;20029;-74
2021/12/04 04:02:10;;;;;;;12.73;7.22;;;;;;;-1.57;65.09;97693.00;5034780;28;20067;-74
2021/12/04 04:04:35;;;;;;;11.10;6.70;;;;;;;-1.55;64.77;97690.06;5039321;28;20025;-74
2021/12/04 04:07:01;;;;;;;13.45;7.18;;;;;;;-1.52;64.43;97690.44;5035086;28;20052;-74
2021/12/04 04:09:27;;;;;;;16.42;7.53;;;;;;;-1.51;64.64;97686.69;5035344;28;20036;-74
2021/12/04 04:11:53;;;;;;;18.27;9.57;;;;;;;-1.50;64.56;97677.56;5034715;28;20044;-74
2021/12/04 04:14:19;;;;;;;15.15;8.45;;;;;;;-1.48;64.78;97671.13;5033873;28;20024;-74
2021/12/04 04:16:44;;;;;;;17.80;8.80;;;;;;;-1.44;64.87;97664.22;5035213;28;20052;-74
2021/12/04 04:19:11;;;;;;;13.95;7.65;;;;;;;-1.40;64.74;97657.28;5038795;28;20029;-74
2021/12/04 04:21:41;;;;;;;14.65;6.50;;;;;;;-1.37;64.62;97657.66;5040726;28;20056;-74
2021/12/04 04:24:09;;;;;;;11.98;6.93;;;;;;;-1.35;64.56;97652.00;5032338;28;20032;-74
2021/12/04 04:26:36;;;;;;;12.63;7.43;;;;;;;-1.33;64.54;97663.34;5035901;28;20083;-74
2021/12/04 04:29:01;;;;;;;12.38;7.15;;;;;;;-1.33;64.39;97660.66;5036243;28;20053;-74
2021/12/04 04:31:28;;;;;;;13.18;7.40;;;;;;;-1.36;64.26;97658.44;5038478;28;20044;-74
2021/12/04 04:34:00;;;;;;;10.18;6.60;;;;;;;-1.35;64.23;97649.31;5037457;28;20061;-74
2021/12/04 04:58:19;;;;;;;11.77;7.25;;;;;;;-1.26;63.99;97612.91;5035688;28;20402;-73
2021/12/04 05:01:09;;;;;;;11.00;6.28;;;;;;;-1.23;63.96;97608.94;5034428;28;20071;-75
2021/12/04 05:11:59;;;;;;;11.32;6.20;;;;;;;-1.11;63.46;97596.25;5034600;28;20144;-74
2021/12/04 05:14:26;;;;;;;9.30;5.30;;;;;;;-1.12;63.42;97586.53;5039041;28;20393;-75
2021/12/04 05:16:59;;;;;;;11.63;6.22;;;;;;;-1.11;63.48;97588.16;5033599;28;20021;-72
2021/12/04 05:19:38;;;;;;;7.60;5.50;;;;;;;-1.08;63.33;97584.19;5033766;28;20017;-72
2021/12/04 05:22:05;;;;;;;11.63;7.15;;;;;;;-1.05;63.67;97583.72;5034606;28;20033;-75
2021/12/04 05:24:31;;;;;;;9.05;5.57;;;;;;;-1.00;63.45;97591.03;5038379;28;21229;-74
2021/12/04 05:26:57;;;;;;;10.23;5.30;;;;;;;-1.03;63.17;97583.44;5035168;28;20029;-74
2021/12/04 05:29:23;;;;;;;9.98;4.70;;;;;;;-1.02;62.89;97588.63;5033159;28;20032;-78
2021/12/04 05:31:48;;;;;;;10.48;5.75;;;;;;;-1.02;62.99;97583.22;5031362;28;20056;-78
2021/12/04 05:34:14;;;;;;;8.20;4.68;;;;;;;-1.01;63.10;97584.84;5039273;28;20103;-77
2021/12/04 05:36:39;;;;;;;13.15;6.03;;;;;;;-1.03;63.38;97578.06;5035854;28;20025;-78
2021/12/04 05:39:05;;;;;;;11.88;6.28;;;;;;;-1.03;62.87;97578.06;5032897;28;20509;-78
2021/12/04 05:41:31;;;;;;;11.25;5.95;;;;;;;-1.05;62.80;97565.66;5036249;28;20044;-78
2021/12/04 05:43:58;;;;;;;9.52;5.32;;;;;;;-1.05;62.92;97571.06;5034768;28;20576;-77
2021/12/04 05:46:27;;;;;;;10.57;5.43;;;;;;;-1.03;62.47;97573.53;5035509;28;20033;-78
2021/12/04 05:49:03;;;;;;;10.97;6.37;;;;;;;-1.06;62.64;97574.81;5036219;28;20401;-77
2021/12/04 05:56:45;;;;;;;13.57;8.05;;;;;;;-1.12;62.75;97569.59;5033965;28;20041;-78
2021/12/04 05:59:10;;;;;;;10.88;6.50;;;;;;;-1.14;62.55;97563.63;5034702;28;20033;-78
2021/12/04 06:01:36;;;;;;;14.55;8.35;;;;;;;-1.16;62.63;97560.38;5038758;28;20041;-78
2021/12/04 06:04:01;;;;;;;11.82;6.70;;;;;;;-1.16;62.33;97563.06;5030972;28;20920;-77
2021/12/04 06:06:27;;;;;;;13.60;7.82;;;;;;;-1.16;62.55;97560.38;5035737;28;20519;-72
2021/12/04 06:08:52;;;;;;;16.10;8.52;;;;;;;-1.16;62.68;97550.41;5035838;28;20025;-72
2021/12/04 06:11:18;;;;;;;14.68;7.43;;;;;;;-1.15;62.87;97556.63;5035942;28;20104;-72
2021/12/04 06:13:44;;;;;;;14.80;7.80;;;;;;;-1.18;62.23;97555.22;5032017;28;20029;-73
2021/12/04 06:16:10;;;;;;;16.38;8.80;;;;;;;-1.22;62.19;97552.19;5034334;28;20431;-72
2021/12/04 06:18:35;;;;;;;17.23;9.38;;;;;;;-1.24;62.45;97566.97;5035334;28;20077;-72
2021/12/04 06:23:46;;;;;;;22.67;11.60;;;;;;;-1.27;62.21;97564.75;5040159;28;20444;-73
2021/12/04 06:26:12;;;;;;;23.48;10.55;;;;;;;-1.30;62.07;97570.59;5036301;28;20025;-72
2021/12/04 06:28:38;;;;;;;23.02;11.00;;;;;;;-1.32;62.01;97573.53;5032237;28;20482;-72
2021/12/04 06:31:06;;;;;;;31.52;13.85;;;;;;;-1.34;62.46;97583.72;5036403;28;20026;-72
2021/12/04 06:33:32;;;;;;;34.47;13.20;;;;;;;-1.36;62.64;97586.66;5036025;28;20387;-72
2021/12/04 06:35:57;;;;;;;33.60;14.73;;;;;;;-1.36;62.51;97583.97;5034117;28;20025;-72
2021/12/04 06:38:23;;;;;;;18.38;8.50;;;;;;;-1.33;62.55;97588.03;5029742;28;20733;-72
2021/12/04 06:40:49;;;;;;;21.00;9.40;;;;;;;-1.33;62.50;97601.47;5039243;28;20032;-72
2021/12/04 06:43:17;;;;;;;20.35;10.00;;;;;;;-1.38;62.17;97593.31;5038339;28;20057;-72
2021/12/04 06:45:44;;;;;;;19.02;9.95;;;;;;;-1.42;62.43;97608.28;5057723;28;20029;-72
2021/12/04 06:48:19;;;;;;;16.70;10.10;;;;;;;-1.43;62.02;97609.38;5036278;28;20053;-72
2021/12/04 06:50:56;;;;;;;21.40;10.27;;;;;;;-1.43;62.38;97606.69;5038614;28;20036;-72
2021/12/04 06:56:02;;;;;;;23.13;10.32;;;;;;;-1.43;62.22;97596.72;5035670;28;20040;-73
2021/12/04 06:58:28;;;;;;;28.60;11.82;;;;;;;-1.43;62.11;97593.25;5037474;28;20063;-72
2021/12/04 07:00:55;;;;;;;31.10;14.60;;;;;;;-1.43;62.46;97602.13;5038409;28;20086;-72
2021/12/04 07:03:21;;;;;;;34.92;15.88;;;;;;;-1.43;62.40;97588.66;5035610;28;20021;-72
2021/12/04 07:05:47;;;;;;;43.13;19.98;;;;;;;-1.43;62.25;97580.59;5036682;28;20105;-72
2021/12/04 07:08:13;;;;;;;55.75;24.45;;;;;;;-1.42;62.29;97589.47;5032835;28;20021;-73
2021/12/04 07:10:39;;;;;;;54.00;23.10;;;;;;;-1.43;62.27;97585.16;5036560;28;20033;-72
2021/12/04 07:13:06;;;;;;;49.28;23.85;;;;;;;-1.43;62.29;97577.91;5036836;28;20878;-72
2021/12/04 07:15:32;;;;;;;48.80;23.05;;;;;;;-1.43;62.25;97566.34;5033828;28;20033;-72
2021/12/04 07:17:59;;;;;;;43.78;17.02;;;;;;;-1.44;62.15;97570.91;5033954;28;20083;-72
2021/12/04 07:20:27;;;;;;;59.10;21.90;;;;;;;-1.43;62.36;97566.34;5035894;28;20028;-72
2021/12/04 07:22:52;;;;;;;61.88;24.95;;;;;;;-1.44;62.16;97559.34;5036634;28;20052;-72
2021/12/04 07:25:18;;;;;;;62.25;25.55;;;;;;;-1.45;62.22;97560.38;5035351;28;20052;-72
2021/12/04 07:27:44;;;;;;;79.10;29.70;;;;;;;-1.46;62.32;97558.75;5037075;28;20108;-72
2021/12/04 07:30:10;;;;;;;97.00;34.92;;;;;;;-1.50;62.17;97555.72;5034641;28;20039;-71
2021/12/04 07:32:39;;;;;;;90.07;33.38;;;;;;;-1.51;62.20;97546.00;5036085;28;20140;-72
2021/12/04 07:35:05;;;;;;;;;;;;;;;-1.48;62.49;97544.72;5039218;28;20219;-72
2021/12/04 07:37:31;;;;;;;44.58;18.65;;;;;;;-1.46;62.36;97545.31;5033232;28;20523;-72
2021/12/04 07:39:57;;;;;;;36.45;19.38;;;;;;;-1.45;62.44;97545.06;5035380;28;20466;-72
2021/12/04 07:42:22;;;;;;;41.28;21.85;;;;;;;-1.44;62.52;97551.25;5055909;28;20437;-72
2021/12/04 07:44:48;;;;;;;45.55;22.95;;;;;;;-1.43;62.15;97548.31;5035809;28;20068;-72
2021/12/04 07:47:14;;;;;;;43.33;21.13;;;;;;;-1.42;62.26;97554.50;5035840;28;20039;-73
2021/12/04 07:49:40;;;;;;;43.60;20.17;;;;;;;-1.42;62.05;97549.94;5031660;28;20079;-72
2021/12/04 07:52:07;;;;;;;38.30;19.65;;;;;;;-1.40;62.45;97544.31;5034303;28;21189;-73
2021/12/04 07:54:34;;;;;;;44.33;19.27;;;;;;;-1.38;62.07;97542.19;5036522;28;20536;-72
2021/12/04 07:57:00;;;;;;;42.75;18.88;;;;;;;-1.35;62.18;97541.72;5036307;28;20033;-72
2021/12/04 07:59:26;;;;;;;31.27;15.52;;;;;;;-1.33;61.96;97541.50;5035741;28;20056;-73
2021/12/04 08:01:51;;;;;;;42.05;21.10;;;;;;;-1.33;62.11;97542.31;5037325;28;20763;-73
2021/12/04 08:04:18;;;;;;;34.33;15.70;;;;;;;-1.31;61.87;97536.69;5032822;28;20143;-73
2021/12/04 08:06:44;;;;;;;34.35;16.88;;;;;;;-1.30;62.30;97538.31;5037227;28;20490;-73
2021/12/04 08:09:09;;;;;;;36.13;16.55;;;;;;;-1.28;62.30;97528.94;5018054;28;20033;-73
2021/12/04 08:11:35;;;;;;;42.05;17.50;;;;;;;-1.23;62.45;97530.94;5035270;28;20036;-73
2021/12/04 08:14:01;;;;;;;41.47;17.90;;;;;;;-1.19;62.30;97534.75;5033548;28;20029;-73
2021/12/04 08:16:26;;;;;;;41.70;18.67;;;;;;;-1.17;62.36;97532.63;5034536;28;20021;-73
2021/12/04 08:18:53;;;;;;;44.13;19.90;;;;;;;-1.17;61.96;97524.56;5032718;28;20032;-70
2021/12/04 08:21:20;;;;;;;47.22;20.13;;;;;;;-1.14;61.91;97520.56;5033633;28;20051;-73
2021/12/04 08:23:46;;;;;;;57.45;25.52;;;;;;;-1.12;62.04;97524.63;5033997;28;20022;-73
2021/12/04 08:26:12;;;;;;;50.13;22.60;;;;;;;-1.06;62.19;97523.66;5034472;28;20040;-73
2021/12/04 08:28:37;;;;;;;42.42;18.50;;;;;;;-1.00;62.04;97518.38;5033486;28;20083;-72
2021/12/04 08:31:03;;;;;;;37.30;15.80;;;;;;;-0.96;62.14;97512.25;5034866;28;20055;-73
2021/12/04 08:33:29;;;;;;;33.80;14.90;;;;;;;-0.93;62.11;97510.97;5036567;28;20049;-73
2021/12/04 08:35:54;;;;;;;35.45;14.48;;;;;;;-0.85;61.98;97512.41;5036996;28;20413;-73
2021/12/04 08:38:20;;;;;;;32.40;14.68;;;;;;;-0.76;61.96;97506.38;5037378;28;20096;-73
2021/12/04 08:40:46;;;;;;;36.75;15.52;;;;;;;-0.69;61.99;97508.91;5038692;28;20040;-73
2021/12/04 08:43:12;;;;;;;35.63;16.05;;;;;;;-0.61;61.78;97504.97;5039739;28;20037;-73
2021/12/04 08:45:38;;;;;;;36.10;15.57;;;;;;;-0.52;61.84;97510.75;5038964;28;20025;-73
2021/12/04 08:48:04;;;;;;;35.28;15.52;;;;;;;-0.46;61.35;97515.16;5037726;28;20075;-73
2021/12/04 08:50:32;;;;;;;32.33;14.15;;;;;;;-0.40;61.90;97514.16;5037747;28;20038;-73
2021/12/04 08:53:00;;;;;;;38.95;15.82;;;;;;;-0.31;61.22;97515.38;5039139;28;20477;-73
2021/12/04 08:55:27;;;;;;;39.17;16.25;;;;;;;-0.21;61.57;97511.19;5038500;28;20029;-73
2021/12/04 08:57:52;;;;;;;37.97;15.82;;;;;;;-0.13;61.71;97502.66;5033556;28;20025;-73
2021/12/04 09:00:49;;;;;;;33.22;13.75;;;;;;;-0.03;61.23;97499.28;5041201;28;20515;-73
2021/12/04 09:03:23;;;;;;;28.83;10.98;;;;;;;0.05;61.22;97493.44;5039661;28;20048;-73
2021/12/04 09:05:50;;;;;;;27.67;12.73;;;;;;;0.14;60.81;97489.22;5037986;28;20029;-73
2021/12/04 09:08:17;;;;;;;26.42;11.25;;;;;;;0.24;60.69;97485.03;5059431;28;20051;-73
2021/12/04 09:10:44;;;;;;;39.30;15.77;;;;;;;0.31;60.51;97484.81;5037621;28;20029;-73
2021/12/04 09:13:11;;;;;;;56.50;18.58;;;;;;;0.37;60.76;97473.84;5060764;28;20720;-72
2021/12/04 09:15:38;;;;;;;63.22;17.83;;;;;;;0.47;59.82;97475.81;5059870;28;20133;-73
2021/12/04 09:18:04;;;;;;;69.07;19.58;;;;;;;0.57;60.41;97480.50;5035349;28;20024;-73
2021/12/04 09:20:30;;;;;;;55.88;17.05;;;;;;;0.68;60.01;97478.69;5038169;28;20029;-70
2021/12/04 09:22:57;;;;;;;62.55;19.60;;;;;;;0.76;58.95;97472.84;5037236;28;20035;-72
2021/12/04 09:25:24;;;;;;;53.58;18.73;;;;;;;0.80;58.81;97463.16;5036099;28;20099;-74
2021/12/04 10:33:22;;;;;;;46.60;16.77;;;;;;;2.53;55.43;97369.81;5031918;28;20140;-73
2021/12/04 10:35:48;;;;;;;43.90;16.73;;;;;;;2.58;55.13;97359.00;5037918;28;20033;-73
2021/12/04 10:38:26;;;;;;;124.93;34.88;;;;;;;2.63;53.99;97364.41;5058414;28;20674;-73
2021/12/04 10:40:53;;;;;;;99.60;28.73;;;;;;;2.68;54.15;97356.25;5032559;28;20437;-73
2021/12/04 10:43:30;;;;;;;83.75;28.40;;;;;;;2.71;53.87;97352.22;5033313;28;20078;-73
2021/12/04 10:46:01;;;;;;;37.85;15.45;;;;;;;2.80;54.49;97347.06;5037476;28;20062;-74
2021/12/04 10:48:29;;;;;;;22.38;10.25;;;;;;;2.92;54.31;97347.59;5037063;28;20071;-72
2021/12/04 10:53:37;;;;;;;25.20;11.60;;;;;;;3.07;52.61;97345.91;5035903;28;20040;-72
2021/12/04 11:04:07;;;;;;;32.50;13.43;;;;;;;3.44;51.62;97331.19;5035410;28;20040;-73
2021/12/04 11:26:52;;;;;;;12.90;6.63;;;;;;;3.63;49.56;97271.72;5032638;28;20420;-71
2021/12/04 11:43:11;;;;;;;15.65;7.93;;;;;;;3.82;50.45;97239.31;5035758;28;20603;-77
2021/12/04 11:45:59;;;;;;;15.15;6.90;;;;;;;3.83;50.79;97242.84;5033687;28;20029;-66
2021/12/04 11:48:40;;;;;;;13.27;7.30;;;;;;;3.81;50.26;97243.13;5031984;28;20100;-66
2021/12/04 11:51:13;;;;;;;11.23;5.53;;;;;;;3.70;49.82;97238.88;5033485;28;20501;-67
2021/12/04 11:53:39;;;;;;;20.25;8.57;;;;;;;3.61;50.75;97237.81;5034400;28;20176;-67
2021/12/04 11:56:05;;;;;;;17.45;7.60;;;;;;;3.57;50.62;97243.00;5035504;28;20037;-67
2021/12/04 11:58:40;;;;;;;13.32;6.53;;;;;;;3.47;49.78;97241.16;5028973;28;20037;-67
2021/12/04 12:01:18;;;;;;;16.35;8.13;;;;;;;3.39;50.97;97244.47;5033808;28;20040;-67
2021/12/04 12:03:54;;;;;;;12.15;6.38;;;;;;;3.33;50.38;97237.47;5033248;28;20043;-66
2021/12/04 12:06:39;;;;;;;19.88;9.23;;;;;;;3.31;51.19;97228.78;5034696;28;20027;-66
2021/12/04 12:09:18;;;;;;;25.70;9.93;;;;;;;3.26;50.79;97238.56;5034116;28;20128;-65
2021/12/04 12:11:56;;;;;;;14.37;5.90;;;;;;;3.21;50.39;97235.88;5036492;28;20095;-64
2021/12/04 12:14:54;;;;;;;17.05;6.65;;;;;;;3.18;50.82;97233.72;5039679;28;20124;-65
2021/12/04 12:17:36;;;;;;;22.02;8.52;;;;;;;3.16;50.75;97235.09;5034485;28;20458;-65
2021/12/04 12:20:08;;;;;;;13.68;6.10;;;;;;;3.11;50.07;97230.50;5039848;28;20061;-65
2021/12/04 12:22:45;;;;;;;9.07;4.13;;;;;;;3.07;50.78;97229.44;5036812;28;20065;-64
2021/12/04 12:25:28;;;;;;;16.73;7.40;;;;;;;3.02;50.37;97230.28;5036939;28;20034;-65
2021/12/04 12:36:13;;;;;;;30.38;12.73;;;;;;;2.94;51.19;97214.59;5034576;28;20033;-65
2021/12/04 12:39:06;;;;;;;30.00;13.98;;;;;;;2.98;51.69;97216.47;5034358;28;20606;-64
2021/12/04 12:41:40;;;;;;;19.30;9.10;;;;;;;3.02;51.73;97200.47;5034016;28;20044;-65
2021/12/04 12:44:08;;;;;;;20.30;10.07;;;;;;;3.02;51.01;97205.09;5034654;28;20445;-65
2021/12/04 12:46:55;;;;;;;20.98;9.82;;;;;;;2.97;50.22;97214.03;5037527;28;20041;-64
2021/12/04 12:49:36;;;;;;;28.85;14.45;;;;;;;2.90;50.30;97217.06;5036479;28;20033;-65
2021/12/04 12:52:01;;;;;;;40.30;13.95;;;;;;;2.85;50.01;97224.41;5033830;28;20579;-65
2021/12/04 12:54:37;;;;;;;77.25;24.63;;;;;;;2.81;51.03;97224.13;5034893;28;20068;-64
2021/12/04 12:57:09;;;;;;;33.63;13.43;;;;;;;2.79;51.05;97227.13;5038228;28;20041;-64
2021/12/04 13:11:35;;;;;;;37.83;14.15;;;;;;;2.79;51.73;97224.41;5035188;28;20406;-65
2021/12/04 13:14:20;;;;;;;76.65;21.73;;;;;;;2.81;51.67;97243.06;5038658;28;20467;-64
2021/12/04 13:16:49;;;;;;;15.93;6.90;;;;;;;2.70;52.59;97244.19;5038206;28;20386;-64
2021/12/04 13:19:18;;;;;;;18.27;8.63;;;;;;;2.34;54.50;97243.16;5036842;28;20147;-65
2021/12/04 13:21:47;;;;;;;41.33;17.38;;;;;;;2.11;54.87;97244.53;5038263;28;20037;-65
2021/12/04 13:24:14;;;;;;;41.28;14.77;;;;;;;2.04;54.89;97250.22;5037233;28;20496;-65
2021/12/04 13:26:44;;;;;;;20.02;7.18;;;;;;;1.93;55.73;97246.72;5034338;28;20463;-64
2021/12/04 13:29:14;;;;;;;31.00;13.88;;;;;;;1.80;57.38;97257.25;5036622;28;20029;-65
2021/12/04 13:31:39;;;;;;;43.90;16.00;;;;;;;1.73;56.73;97239.41;5037043;28;20037;-64
2021/12/04 13:34:07;;;;;;;35.42;12.82;;;;;;;1.68;57.82;97236.69;5037943;28;20576;-65
2021/12/04 13:36:33;;;;;;;42.33;13.88;;;;;;;1.63;57.51;97223.16;5035918;28;20029;-64
2021/12/04 13:39:09;;;;;;;29.23;11.25;;;;;;;1.62;57.45;97216.97;5022706;28;20021;-63
2021/12/04 13:41:37;;;;;;;39.97;12.45;;;;;;;1.68;57.97;97214.25;5019683;28;20044;-64
2021/12/04 13:44:06;;;;;;;36.90;13.77;;;;;;;1.75;58.21;97225.59;5024225;28;20881;-65
2021/12/04 13:46:43;;;;;;;27.17;10.00;;;;;;;1.84;58.43;97225.88;5024912;28;20195;-65
2021/12/04 13:49:10;;;;;;;31.20;11.07;;;;;;;1.98;58.25;97216.16;5026167;28;20033;-65
2021/12/04 13:51:36;;;;;;;21.15;8.98;;;;;;;2.10;57.73;97223.97;5024950;28;20595;-65
2021/12/04 13:54:03;;;;;;;21.52;9.07;;;;;;;2.20;57.81;97215.06;5023781;28;20148;-66
2021/12/04 13:56:30;;;;;;;25.15;10.73;;;;;;;2.19;58.19;97202.63;5023115;28;20990;-65
2021/12/04 13:59:02;;;;;;;18.45;9.45;;;;;;;2.20;57.73;97206.94;5020194;28;20155;-67
2021/12/04 14:01:30;;;;;;;17.63;9.57;;;;;;;2.19;57.77;97211.53;5014727;28;20076;-65
2021/12/04 14:03:57;;;;;;;22.83;10.63;;;;;;;2.22;58.04;97216.41;5015100;28;20029;-67
2021/12/04 14:06:23;;;;;;;19.80;10.45;;;;;;;2.21;57.59;97222.09;5023465;28;20026;-66
2021/12/04 14:08:57;;;;;;;27.85;12.43;;;;;;;2.16;57.50;97219.41;5022331;28;20043;-65
2021/12/04 14:11:31;;;;;;;40.35;16.00;;;;;;;2.14;57.31;97225.06;5024550;28;20107;-65
2021/12/04 14:13:57;;;;;;;54.97;19.20;;;;;;;2.15;57.86;97221.28;5022482;28;20063;-65
2021/12/04 14:16:24;;;;;;;51.58;19.98;;;;;;;2.21;57.69;97217.50;5038422;28;20030;-65
2021/12/04 14:18:49;;;;;;;39.92;14.13;;;;;;;2.27;57.96;97214.78;5022995;28;20587;-66
2021/12/04 14:21:15;;;;;;;32.72;12.80;;;;;;;2.27;57.46;97215.56;5014891;28;20040;-66
2021/12/04 14:23:41;;;;;;;33.33;13.52;;;;;;;2.26;58.12;97207.75;5013887;28;20112;-66
2021/12/04 14:26:07;;;;;;;30.17;12.23;;;;;;;2.28;57.84;97203.66;5018547;28;20136;-67
2021/12/04 14:28:38;;;;;;;27.23;11.55;;;;;;;2.31;57.65;97208.53;5021851;28;20572;-67
2021/12/04 14:31:04;;;;;;;22.05;11.38;;;;;;;2.33;58.16;97205.56;5024120;28;20024;-67
2021/12/04 14:33:29;;;;;;;24.15;11.07;;;;;;;2.34;57.65;97208.00;5023245;28;20049;-67
2021/12/04 14:35:55;;;;;;;24.10;12.25;;;;;;;2.35;57.75;97209.63;5021949;28;20556;-67
2021/12/04 14:38:27;;;;;;;27.88;11.48;;;;;;;2.36;57.85;97218.56;5024005;28;20060;-67
2021/12/04 14:41:04;;;;;;;88.22;26.98;;;;;;;2.35;57.97;97215.03;5019104;28;20083;-67
2021/12/04 14:43:33;;;;;;;73.47;22.73;;;;;;;2.37;58.10;97212.06;5015394;28;20091;-67